map of BWG home
BWG - Airport
Location
City:  Bowling Green, Kentucky, United States
Name:Bowling Green-Warren County Regional
ICAO:KBWG
IATA:BWG
FAA LID:BWG

Details
Type:Airport (Part 139 Class IV)
Use:Public/Civil
Latitude:3657'52"N (36.964528)
Longitude:8625'11"W (-86.419666)
Datum:WGS 1984
Elevation:547 ft (167 m)
Variation:4.14W (WMM2015 magnetic declination)
-0.08 annual change
Runways:2
Longest:6501 × 150 ft (1982 × 45.5 m), paved

Time
Time Zone:UTC-6 (DST-5)
Local Time:

Weather
METAR:KBWG 140153Z AUTO 23008KT 10SM CLR 07/M06 A2971 RMK AO2 SLP063 T00721056
TAF:KBWG 132331Z 1400/1424 24013G21KT P6SM FEW060
FM140500 30007KT P6SM SCT040
FM141400 35005KT P6SM FEW040 FEW180

Related Locations
Nearby:
Farthest:MQZ: 11214 mi / 18047 km
Margaret River [Margaret River Airport], WA, AU

Find:

   beyond  
but within

Other Information
Maps:
NOTAMs:
Links:
Sources:

  
flag of United States
flag of Kentucky
  

Sectional Chart

Flight Planning
at skyvector.com

Satellite Image

Google Maps Satellite view

 

Copyright © 2004-2017 Karl L. Swartz. All rights reserved.
The Great Circle Mapper name and logo are trademarks of the Great Circle Mapper.
All other trademarks mentioned herein belong to their respective owners.
Please see credits for attibutions and further copyright information.

  Follow gcmap on Facebook Follow gcmap on Twitter Follow gcmap on Google+ GCmap on LinkedIn

hCard Microformat

Geo Microformat